sensor_id;sensor_type;location;lat;lon;timestamp;P1;durP1;ratioP1;P2;durP2;ratioP2
1995;SDS011;38556;47.068;15.408;2022-07-04T00:01:26;262.50;;;246.60;;
1995;SDS011;38556;47.068;15.408;2022-07-04T00:03:53;264.47;;;248.87;;
1995;SDS011;38556;47.068;15.408;2022-07-04T00:06:21;270.80;;;255.00;;
1995;SDS011;38556;47.068;15.408;2022-07-04T00:08:48;261.93;;;246.30;;
1995;SDS011;38556;47.068;15.408;2022-07-04T00:11:15;257.57;;;242.33;;
1995;SDS011;38556;47.068;15.408;2022-07-04T00:13:43;256.20;;;241.10;;
1995;SDS011;38556;47.068;15.408;2022-07-04T00:16:11;253.30;;;238.10;;
1995;SDS011;38556;47.068;15.408;2022-07-04T00:18:39;266.13;;;250.60;;
1995;SDS011;38556;47.068;15.408;2022-07-04T00:21:06;275.87;;;260.07;;
1995;SDS011;38556;47.068;15.408;2022-07-04T00:23:34;274.00;;;258.00;;
1995;SDS011;38556;47.068;15.408;2022-07-04T00:26:01;270.83;;;254.80;;
1995;SDS011;38556;47.068;15.408;2022-07-04T00:28:28;262.83;;;247.63;;
1995;SDS011;38556;47.068;15.408;2022-07-04T00:30:56;276.47;;;260.60;;
1995;SDS011;38556;47.068;15.408;2022-07-04T00:33:24;277.93;;;262.00;;
1995;SDS011;38556;47.068;15.408;2022-07-04T00:35:51;273.33;;;257.63;;
1995;SDS011;38556;47.068;15.408;2022-07-04T00:38:19;264.77;;;249.13;;
1995;SDS011;38556;47.068;15.408;2022-07-04T00:40:46;263.17;;;247.67;;
1995;SDS011;38556;47.068;15.408;2022-07-04T00:43:16;271.80;;;256.00;;
1995;SDS011;38556;47.068;15.408;2022-07-04T00:45:48;279.07;;;262.90;;
1995;SDS011;38556;47.068;15.408;2022-07-04T00:48:16;288.03;;;271.43;;
1995;SDS011;38556;47.068;15.408;2022-07-04T00:50:45;290.23;;;273.50;;
1995;SDS011;38556;47.068;15.408;2022-07-04T00:53:14;287.20;;;270.50;;
1995;SDS011;38556;47.068;15.408;2022-07-04T00:55:43;298.13;;;280.83;;
1995;SDS011;38556;47.068;15.408;2022-07-04T00:58:11;283.80;;;267.53;;
1995;SDS011;38556;47.068;15.408;2022-07-04T01:00:40;286.20;;;269.60;;
1995;SDS011;38556;47.068;15.408;2022-07-04T01:03:07;281.00;;;264.60;;
1995;SDS011;38556;47.068;15.408;2022-07-04T01:05:35;280.57;;;264.07;;
1995;SDS011;38556;47.068;15.408;2022-07-04T01:08:04;291.17;;;274.23;;
1995;SDS011;38556;47.068;15.408;2022-07-04T01:10:32;284.77;;;268.17;;
1995;SDS011;38556;47.068;15.408;2022-07-04T01:12:59;273.23;;;256.70;;
1995;SDS011;38556;47.068;15.408;2022-07-04T01:15:27;276.40;;;259.93;;
1995;SDS011;38556;47.068;15.408;2022-07-04T01:17:54;286.07;;;269.17;;
1995;SDS011;38556;47.068;15.408;2022-07-04T01:20:23;291.63;;;274.83;;
1995;SDS011;38556;47.068;15.408;2022-07-04T01:22:50;295.63;;;278.30;;
1995;SDS011;38556;47.068;15.408;2022-07-04T01:25:17;292.03;;;274.73;;
1995;SDS011;38556;47.068;15.408;2022-07-04T01:27:45;288.00;;;271.00;;
1995;SDS011;38556;47.068;15.408;2022-07-04T01:30:12;298.33;;;280.93;;
1995;SDS011;38556;47.068;15.408;2022-07-04T01:32:41;306.07;;;288.27;;
1995;SDS011;38556;47.068;15.408;2022-07-04T01:35:09;309.17;;;291.27;;
1995;SDS011;38556;47.068;15.408;2022-07-04T01:37:39;311.27;;;293.37;;
1995;SDS011;38556;47.068;15.408;2022-07-04T01:40:06;313.40;;;295.60;;
1995;SDS011;38556;47.068;15.408;2022-07-04T01:42:35;309.90;;;292.00;;
1995;SDS011;38556;47.068;15.408;2022-07-04T01:45:02;305.87;;;288.17;;
1995;SDS011;38556;47.068;15.408;2022-07-04T01:47:30;306.47;;;288.60;;
1995;SDS011;38556;47.068;15.408;2022-07-04T01:49:58;315.80;;;297.37;;
1995;SDS011;38556;47.068;15.408;2022-07-04T01:52:25;311.47;;;293.07;;
1995;SDS011;38556;47.068;15.408;2022-07-04T01:54:53;312.47;;;294.40;;
1995;SDS011;38556;47.068;15.408;2022-07-04T01:57:21;316.40;;;297.90;;
1995;SDS011;38556;47.068;15.408;2022-07-04T01:59:48;333.27;;;313.90;;
1995;SDS011;38556;47.068;15.408;2022-07-04T02:02:33;337.30;;;318.40;;
1995;SDS011;38556;47.068;15.408;2022-07-04T02:05:01;333.83;;;313.70;;
1995;SDS011;38556;47.068;15.408;2022-07-04T02:07:28;354.50;;;333.60;;
1995;SDS011;38556;47.068;15.408;2022-07-04T02:09:57;371.30;;;349.00;;
1995;SDS011;38556;47.068;15.408;2022-07-04T02:12:24;383.33;;;359.93;;
1995;SDS011;38556;47.068;15.408;2022-07-04T02:15:09;386.43;;;363.23;;
1995;SDS011;38556;47.068;15.408;2022-07-04T02:17:36;379.30;;;356.80;;
1995;SDS011;38556;47.068;15.408;2022-07-04T02:20:04;378.00;;;355.10;;
1995;SDS011;38556;47.068;15.408;2022-07-04T02:22:32;378.80;;;355.40;;
1995;SDS011;38556;47.068;15.408;2022-07-04T02:25:01;374.27;;;350.70;;
1995;SDS011;38556;47.068;15.408;2022-07-04T02:27:29;387.90;;;364.03;;
1995;SDS011;38556;47.068;15.408;2022-07-04T02:29:56;391.17;;;367.87;;
1995;SDS011;38556;47.068;15.408;2022-07-04T02:32:23;398.80;;;375.20;;
1995;SDS011;38556;47.068;15.408;2022-07-04T02:34:51;389.07;;;365.33;;
1995;SDS011;38556;47.068;15.408;2022-07-04T02:37:18;386.17;;;362.87;;
1995;SDS011;38556;47.068;15.408;2022-07-04T02:39:45;391.60;;;367.83;;
1995;SDS011;38556;47.068;15.408;2022-07-04T02:42:14;392.93;;;369.93;;
1995;SDS011;38556;47.068;15.408;2022-07-04T02:44:41;377.60;;;355.00;;
1995;SDS011;38556;47.068;15.408;2022-07-04T02:47:10;378.40;;;355.67;;
1995;SDS011;38556;47.068;15.408;2022-07-04T02:49:38;398.83;;;374.47;;
1995;SDS011;38556;47.068;15.408;2022-07-04T02:52:05;406.40;;;381.60;;
1995;SDS011;38556;47.068;15.408;2022-07-04T02:54:32;399.07;;;374.67;;
1995;SDS011;38556;47.068;15.408;2022-07-04T02:57:00;394.63;;;370.83;;
1995;SDS011;38556;47.068;15.408;2022-07-04T02:59:28;414.83;;;390.03;;
1995;SDS011;38556;47.068;15.408;2022-07-04T03:01:55;397.13;;;373.63;;
1995;SDS011;38556;47.068;15.408;2022-07-04T03:04:23;393.03;;;369.30;;
1995;SDS011;38556;47.068;15.408;2022-07-04T03:06:50;397.70;;;373.90;;
1995;SDS011;38556;47.068;15.408;2022-07-04T03:09:17;416.20;;;391.73;;
1995;SDS011;38556;47.068;15.408;2022-07-04T03:11:45;421.63;;;397.53;;
1995;SDS011;38556;47.068;15.408;2022-07-04T03:14:12;406.13;;;381.77;;
1995;SDS011;38556;47.068;15.408;2022-07-04T03:16:41;401.43;;;377.93;;
1995;SDS011;38556;47.068;15.408;2022-07-04T03:19:09;414.40;;;389.70;;
1995;SDS011;38556;47.068;15.408;2022-07-04T03:21:36;419.77;;;394.37;;
1995;SDS011;38556;47.068;15.408;2022-07-04T03:24:04;410.27;;;385.17;;
1995;SDS011;38556;47.068;15.408;2022-07-04T03:26:33;415.47;;;390.40;;
1995;SDS011;38556;47.068;15.408;2022-07-04T03:29:01;383.63;;;358.83;;
1995;SDS011;38556;47.068;15.408;2022-07-04T03:31:29;409.83;;;384.87;;
1995;SDS011;38556;47.068;15.408;2022-07-04T03:33:57;420.07;;;395.57;;
1995;SDS011;38556;47.068;15.408;2022-07-04T03:36:25;409.83;;;385.70;;
1995;SDS011;38556;47.068;15.408;2022-07-04T03:38:52;404.40;;;379.40;;
1995;SDS011;38556;47.068;15.408;2022-07-04T03:41:20;439.53;;;412.80;;
1995;SDS011;38556;47.068;15.408;2022-07-04T03:43:47;425.87;;;399.07;;
1995;SDS011;38556;47.068;15.408;2022-07-04T03:46:15;422.43;;;395.87;;
1995;SDS011;38556;47.068;15.408;2022-07-04T03:48:42;398.30;;;372.83;;
1995;SDS011;38556;47.068;15.408;2022-07-04T03:51:11;394.70;;;368.73;;
1995;SDS011;38556;47.068;15.408;2022-07-04T03:53:39;403.93;;;379.23;;
1995;SDS011;38556;47.068;15.408;2022-07-04T03:56:08;446.17;;;421.03;;
1995;SDS011;38556;47.068;15.408;2022-07-04T03:58:36;415.47;;;390.07;;
1995;SDS011;38556;47.068;15.408;2022-07-04T04:01:03;422.23;;;396.87;;
1995;SDS011;38556;47.068;15.408;2022-07-04T04:03:30;405.83;;;381.33;;
1995;SDS011;38556;47.068;15.408;2022-07-04T04:06:17;402.40;;;378.50;;
1995;SDS011;38556;47.068;15.408;2022-07-04T04:08:44;396.13;;;372.27;;
1995;SDS011;38556;47.068;15.408;2022-07-04T04:11:12;410.43;;;385.97;;
1995;SDS011;38556;47.068;15.408;2022-07-04T04:13:39;406.03;;;382.97;;
1995;SDS011;38556;47.068;15.408;2022-07-04T04:16:06;404.10;;;380.70;;
1995;SDS011;38556;47.068;15.408;2022-07-04T04:18:34;383.67;;;360.23;;
1995;SDS011;38556;47.068;15.408;2022-07-04T04:21:02;402.83;;;378.33;;
1995;SDS011;38556;47.068;15.408;2022-07-04T04:23:31;434.30;;;409.70;;
1995;SDS011;38556;47.068;15.408;2022-07-04T04:25:58;406.43;;;382.07;;
1995;SDS011;38556;47.068;15.408;2022-07-04T04:28:26;460.23;;;435.27;;
1995;SDS011;38556;47.068;15.408;2022-07-04T04:30:53;402.80;;;378.40;;
1995;SDS011;38556;47.068;15.408;2022-07-04T04:33:20;411.13;;;386.33;;
1995;SDS011;38556;47.068;15.408;2022-07-04T04:35:48;391.17;;;366.67;;
1995;SDS011;38556;47.068;15.408;2022-07-04T04:38:15;396.30;;;370.90;;
1995;SDS011;38556;47.068;15.408;2022-07-04T04:40:44;397.13;;;371.83;;
1995;SDS011;38556;47.068;15.408;2022-07-04T04:43:12;393.70;;;368.47;;
1995;SDS011;38556;47.068;15.408;2022-07-04T04:45:39;413.87;;;388.83;;
1995;SDS011;38556;47.068;15.408;2022-07-04T04:48:07;420.07;;;394.77;;
1995;SDS011;38556;47.068;15.408;2022-07-04T04:50:34;421.20;;;396.23;;
1995;SDS011;38556;47.068;15.408;2022-07-04T04:53:02;422.53;;;397.93;;
1995;SDS011;38556;47.068;15.408;2022-07-04T04:55:29;412.27;;;388.47;;
1995;SDS011;38556;47.068;15.408;2022-07-04T04:57:58;398.50;;;374.80;;
1995;SDS011;38556;47.068;15.408;2022-07-04T05:00:25;385.63;;;362.03;;
1995;SDS011;38556;47.068;15.408;2022-07-04T05:02:53;407.67;;;385.20;;
1995;SDS011;38556;47.068;15.408;2022-07-04T05:05:20;387.57;;;365.93;;
1995;SDS011;38556;47.068;15.408;2022-07-04T05:07:49;403.03;;;380.53;;
1995;SDS011;38556;47.068;15.408;2022-07-04T05:10:16;414.23;;;392.73;;
1995;SDS011;38556;47.068;15.408;2022-07-04T05:12:43;404.10;;;382.47;;
1995;SDS011;38556;47.068;15.408;2022-07-04T05:15:13;402.20;;;381.00;;
1995;SDS011;38556;47.068;15.408;2022-07-04T05:17:41;395.80;;;373.23;;
1995;SDS011;38556;47.068;15.408;2022-07-04T05:20:08;376.93;;;355.37;;
1995;SDS011;38556;47.068;15.408;2022-07-04T05:22:36;367.40;;;346.67;;
1995;SDS011;38556;47.068;15.408;2022-07-04T05:25:04;373.67;;;352.67;;
1995;SDS011;38556;47.068;15.408;2022-07-04T05:27:33;365.10;;;345.00;;
1995;SDS011;38556;47.068;15.408;2022-07-04T05:30:00;326.03;;;306.03;;
1995;SDS011;38556;47.068;15.408;2022-07-04T05:32:29;310.30;;;291.77;;
1995;SDS011;38556;47.068;15.408;2022-07-04T05:34:56;291.73;;;274.43;;
1995;SDS011;38556;47.068;15.408;2022-07-04T05:37:24;301.03;;;283.53;;
1995;SDS011;38556;47.068;15.408;2022-07-04T05:39:51;312.93;;;294.73;;
1995;SDS011;38556;47.068;15.408;2022-07-04T05:42:18;300.87;;;283.87;;
1995;SDS011;38556;47.068;15.408;2022-07-04T05:44:46;299.27;;;281.40;;
1995;SDS011;38556;47.068;15.408;2022-07-04T05:47:14;292.30;;;275.50;;
1995;SDS011;38556;47.068;15.408;2022-07-04T05:49:42;280.97;;;264.67;;
1995;SDS011;38556;47.068;15.408;2022-07-04T05:52:10;274.70;;;258.17;;
1995;SDS011;38556;47.068;15.408;2022-07-04T05:54:37;289.17;;;272.20;;
1995;SDS011;38556;47.068;15.408;2022-07-04T05:57:04;295.07;;;279.20;;
1995;SDS011;38556;47.068;15.408;2022-07-04T05:59:32;284.57;;;267.93;;
1995;SDS011;38556;47.068;15.408;2022-07-04T06:01:59;272.20;;;257.03;;
1995;SDS011;38556;47.068;15.408;2022-07-04T06:04:27;274.53;;;258.93;;
1995;SDS011;38556;47.068;15.408;2022-07-04T06:06:55;283.17;;;266.87;;
1995;SDS011;38556;47.068;15.408;2022-07-04T06:09:22;267.97;;;252.87;;
1995;SDS011;38556;47.068;15.408;2022-07-04T06:11:50;275.10;;;259.07;;
1995;SDS011;38556;47.068;15.408;2022-07-04T06:14:17;272.53;;;256.63;;
1995;SDS011;38556;47.068;15.408;2022-07-04T06:16:45;282.27;;;264.77;;
1995;SDS011;38556;47.068;15.408;2022-07-04T06:19:12;268.93;;;253.17;;
1995;SDS011;38556;47.068;15.408;2022-07-04T06:21:40;267.33;;;251.93;;
1995;SDS011;38556;47.068;15.408;2022-07-04T06:24:08;270.40;;;254.67;;
1995;SDS011;38556;47.068;15.408;2022-07-04T06:26:35;279.47;;;263.80;;
1995;SDS011;38556;47.068;15.408;2022-07-04T06:29:03;280.03;;;264.43;;
1995;SDS011;38556;47.068;15.408;2022-07-04T06:31:30;282.57;;;266.03;;
1995;SDS011;38556;47.068;15.408;2022-07-04T06:33:58;272.67;;;256.70;;
1995;SDS011;38556;47.068;15.408;2022-07-04T06:36:57;264.73;;;249.67;;
1995;SDS011;38556;47.068;15.408;2022-07-04T06:39:26;254.07;;;238.97;;
1995;SDS011;38556;47.068;15.408;2022-07-04T06:41:53;266.27;;;250.50;;
1995;SDS011;38556;47.068;15.408;2022-07-04T06:44:21;246.30;;;232.10;;
1995;SDS011;38556;47.068;15.408;2022-07-04T06:46:48;235.50;;;222.17;;
1995;SDS011;38556;47.068;15.408;2022-07-04T06:49:16;232.23;;;218.77;;
1995;SDS011;38556;47.068;15.408;2022-07-04T06:51:43;241.77;;;227.00;;
1995;SDS011;38556;47.068;15.408;2022-07-04T06:54:11;249.67;;;235.80;;
1995;SDS011;38556;47.068;15.408;2022-07-04T06:56:39;235.97;;;222.27;;
1995;SDS011;38556;47.068;15.408;2022-07-04T06:59:07;249.47;;;234.63;;
1995;SDS011;38556;47.068;15.408;2022-07-04T07:01:34;249.53;;;235.03;;
1995;SDS011;38556;47.068;15.408;2022-07-04T07:04:01;251.03;;;236.53;;
1995;SDS011;38556;47.068;15.408;2022-07-04T07:06:29;247.23;;;232.93;;
1995;SDS011;38556;47.068;15.408;2022-07-04T07:08:56;242.13;;;227.07;;
1995;SDS011;38556;47.068;15.408;2022-07-04T07:11:23;237.20;;;223.33;;
1995;SDS011;38556;47.068;15.408;2022-07-04T07:13:53;225.33;;;211.77;;
1995;SDS011;38556;47.068;15.408;2022-07-04T07:16:20;230.50;;;216.80;;
1995;SDS011;38556;47.068;15.408;2022-07-04T07:18:48;228.70;;;215.17;;
1995;SDS011;38556;47.068;15.408;2022-07-04T07:21:15;229.00;;;215.37;;
1995;SDS011;38556;47.068;15.408;2022-07-04T07:23:43;213.30;;;200.43;;
1995;SDS011;38556;47.068;15.408;2022-07-04T07:26:10;219.03;;;205.83;;
1995;SDS011;38556;47.068;15.408;2022-07-04T07:28:38;227.33;;;214.03;;
1995;SDS011;38556;47.068;15.408;2022-07-04T07:31:07;221.33;;;208.37;;
1995;SDS011;38556;47.068;15.408;2022-07-04T07:33:34;215.50;;;202.60;;
1995;SDS011;38556;47.068;15.408;2022-07-04T07:36:01;225.60;;;212.40;;
1995;SDS011;38556;47.068;15.408;2022-07-04T07:38:29;227.60;;;214.20;;
1995;SDS011;38556;47.068;15.408;2022-07-04T07:40:56;236.63;;;222.53;;
1995;SDS011;38556;47.068;15.408;2022-07-04T07:43:24;237.73;;;224.13;;
1995;SDS011;38556;47.068;15.408;2022-07-04T07:45:51;236.87;;;223.23;;
1995;SDS011;38556;47.068;15.408;2022-07-04T07:48:20;242.00;;;228.53;;
1995;SDS011;38556;47.068;15.408;2022-07-04T07:50:48;244.13;;;229.77;;
1995;SDS011;38556;47.068;15.408;2022-07-04T07:53:15;240.87;;;227.27;;
1995;SDS011;38556;47.068;15.408;2022-07-04T07:55:43;239.57;;;225.93;;
1995;SDS011;38556;47.068;15.408;2022-07-04T07:58:10;242.10;;;228.20;;
1995;SDS011;38556;47.068;15.408;2022-07-04T08:00:37;238.17;;;224.57;;
1995;SDS011;38556;47.068;15.408;2022-07-04T08:03:05;241.50;;;227.80;;
1995;SDS011;38556;47.068;15.408;2022-07-04T08:05:51;233.37;;;220.07;;
1995;SDS011;38556;47.068;15.408;2022-07-04T08:08:18;231.83;;;218.63;;
1995;SDS011;38556;47.068;15.408;2022-07-04T08:10:47;229.03;;;215.73;;
1995;SDS011;38556;47.068;15.408;2022-07-04T08:13:15;226.70;;;213.00;;
1995;SDS011;38556;47.068;15.408;2022-07-04T08:15:42;226.90;;;213.10;;
1995;SDS011;38556;47.068;15.408;2022-07-04T08:18:09;225.60;;;211.90;;
1995;SDS011;38556;47.068;15.408;2022-07-04T08:20:37;237.10;;;223.33;;
1995;SDS011;38556;47.068;15.408;2022-07-04T08:23:05;228.57;;;214.93;;
1995;SDS011;38556;47.068;15.408;2022-07-04T08:25:33;239.80;;;225.57;;
1995;SDS011;38556;47.068;15.408;2022-07-04T08:28:00;227.90;;;214.60;;
1995;SDS011;38556;47.068;15.408;2022-07-04T08:30:27;219.73;;;206.43;;
1995;SDS011;38556;47.068;15.408;2022-07-04T08:32:55;230.50;;;216.57;;
1995;SDS011;38556;47.068;15.408;2022-07-04T08:35:22;234.33;;;220.57;;
1995;SDS011;38556;47.068;15.408;2022-07-04T08:37:49;249.20;;;234.97;;
1995;SDS011;38556;47.068;15.408;2022-07-04T08:40:21;247.60;;;232.97;;
1995;SDS011;38556;47.068;15.408;2022-07-04T08:42:49;239.17;;;224.80;;
1995;SDS011;38556;47.068;15.408;2022-07-04T08:45:17;239.83;;;225.73;;
1995;SDS011;38556;47.068;15.408;2022-07-04T08:47:48;247.60;;;233.00;;
1995;SDS011;38556;47.068;15.408;2022-07-04T08:50:20;244.37;;;229.73;;
1995;SDS011;38556;47.068;15.408;2022-07-04T08:52:53;240.97;;;226.57;;
1995;SDS011;38556;47.068;15.408;2022-07-04T08:55:24;254.63;;;240.43;;
1995;SDS011;38556;47.068;15.408;2022-07-04T08:58:09;255.17;;;240.13;;
1995;SDS011;38556;47.068;15.408;2022-07-04T09:00:54;239.40;;;225.70;;
1995;SDS011;38556;47.068;15.408;2022-07-04T09:03:22;238.57;;;224.57;;
1995;SDS011;38556;47.068;15.408;2022-07-04T09:05:49;256.77;;;242.03;;
1995;SDS011;38556;47.068;15.408;2022-07-04T09:08:17;239.80;;;226.30;;
1995;SDS011;38556;47.068;15.408;2022-07-04T09:10:46;240.93;;;227.03;;
1995;SDS011;38556;47.068;15.408;2022-07-04T09:13:14;249.40;;;234.83;;
1995;SDS011;38556;47.068;15.408;2022-07-04T09:15:43;237.43;;;223.20;;
1995;SDS011;38556;47.068;15.408;2022-07-04T09:18:21;247.83;;;233.27;;
1995;SDS011;38556;47.068;15.408;2022-07-04T09:20:50;237.30;;;223.47;;
1995;SDS011;38556;47.068;15.408;2022-07-04T09:23:18;240.27;;;225.77;;
1995;SDS011;38556;47.068;15.408;2022-07-04T09:25:48;239.63;;;225.63;;
1995;SDS011;38556;47.068;15.408;2022-07-04T09:28:26;252.27;;;236.77;;
1995;SDS011;38556;47.068;15.408;2022-07-04T09:30:54;245.90;;;231.70;;
1995;SDS011;38556;47.068;15.408;2022-07-04T09:33:22;239.30;;;225.50;;
1995;SDS011;38556;47.068;15.408;2022-07-04T09:35:49;240.23;;;226.53;;
1995;SDS011;38556;47.068;15.408;2022-07-04T09:38:21;251.07;;;236.13;;
1995;SDS011;38556;47.068;15.408;2022-07-04T09:40:53;252.80;;;237.27;;
1995;SDS011;38556;47.068;15.408;2022-07-04T09:43:38;240.77;;;226.77;;
1995;SDS011;38556;47.068;15.408;2022-07-04T09:46:28;237.90;;;224.10;;
1995;SDS011;38556;47.068;15.408;2022-07-04T09:48:57;232.80;;;218.53;;
1995;SDS011;38556;47.068;15.408;2022-07-04T09:51:40;222.13;;;208.70;;
1995;SDS011;38556;47.068;15.408;2022-07-04T09:54:12;223.17;;;209.87;;
1995;SDS011;38556;47.068;15.408;2022-07-04T09:56:47;232.77;;;218.97;;
1995;SDS011;38556;47.068;15.408;2022-07-04T09:59:16;233.43;;;219.87;;
1995;SDS011;38556;47.068;15.408;2022-07-04T10:01:43;219.77;;;206.10;;
1995;SDS011;38556;47.068;15.408;2022-07-04T10:04:10;227.97;;;213.63;;
1995;SDS011;38556;47.068;15.408;2022-07-04T10:06:39;224.10;;;210.00;;
1995;SDS011;38556;47.068;15.408;2022-07-04T10:09:09;226.30;;;213.10;;
1995;SDS011;38556;47.068;15.408;2022-07-04T10:11:38;240.33;;;226.47;;
1995;SDS011;38556;47.068;15.408;2022-07-04T10:14:08;243.17;;;229.07;;
1995;SDS011;38556;47.068;15.408;2022-07-04T10:16:38;234.77;;;221.27;;
1995;SDS011;38556;47.068;15.408;2022-07-04T10:19:07;231.00;;;217.43;;
1995;SDS011;38556;47.068;15.408;2022-07-04T10:21:38;221.50;;;207.83;;
1995;SDS011;38556;47.068;15.408;2022-07-04T10:24:06;225.50;;;211.90;;
1995;SDS011;38556;47.068;15.408;2022-07-04T10:26:35;223.27;;;209.77;;
1995;SDS011;38556;47.068;15.408;2022-07-04T10:29:02;220.87;;;207.57;;
1995;SDS011;38556;47.068;15.408;2022-07-04T10:31:32;221.07;;;208.27;;
1995;SDS011;38556;47.068;15.408;2022-07-04T10:34:00;218.47;;;205.40;;
1995;SDS011;38556;47.068;15.408;2022-07-04T10:36:28;222.03;;;209.00;;
1995;SDS011;38556;47.068;15.408;2022-07-04T10:38:57;210.87;;;198.17;;
1995;SDS011;38556;47.068;15.408;2022-07-04T10:41:26;215.27;;;202.40;;
1995;SDS011;38556;47.068;15.408;2022-07-04T10:43:56;209.43;;;196.43;;
1995;SDS011;38556;47.068;15.408;2022-07-04T10:46:30;220.60;;;207.10;;
1995;SDS011;38556;47.068;15.408;2022-07-04T10:49:03;218.77;;;205.47;;
1995;SDS011;38556;47.068;15.408;2022-07-04T10:51:34;205.30;;;191.60;;
1995;SDS011;38556;47.068;15.408;2022-07-04T10:54:08;203.50;;;190.60;;
1995;SDS011;38556;47.068;15.408;2022-07-04T10:56:38;201.93;;;189.50;;
1995;SDS011;38556;47.068;15.408;2022-07-04T10:59:07;207.13;;;194.00;;
1995;SDS011;38556;47.068;15.408;2022-07-04T11:01:38;206.03;;;193.73;;
1995;SDS011;38556;47.068;15.408;2022-07-04T11:04:05;218.63;;;205.23;;
1995;SDS011;38556;47.068;15.408;2022-07-04T11:06:51;204.33;;;192.13;;
1995;SDS011;38556;47.068;15.408;2022-07-04T11:09:20;224.10;;;210.50;;
1995;SDS011;38556;47.068;15.408;2022-07-04T11:11:54;226.37;;;212.77;;
1995;SDS011;38556;47.068;15.408;2022-07-04T11:14:29;232.33;;;218.93;;
1995;SDS011;38556;47.068;15.408;2022-07-04T11:16:59;227.20;;;213.67;;
1995;SDS011;38556;47.068;15.408;2022-07-04T11:19:26;219.13;;;205.57;;
1995;SDS011;38556;47.068;15.408;2022-07-04T11:21:54;177.50;;;165.50;;
1995;SDS011;38556;47.068;15.408;2022-07-04T11:24:22;171.93;;;160.30;;
1995;SDS011;38556;47.068;15.408;2022-07-04T11:26:50;173.03;;;161.17;;
1995;SDS011;38556;47.068;15.408;2022-07-04T11:29:17;179.40;;;167.50;;
1995;SDS011;38556;47.068;15.408;2022-07-04T11:31:46;206.60;;;193.97;;
1995;SDS011;38556;47.068;15.408;2022-07-04T11:34:15;217.87;;;204.67;;
1995;SDS011;38556;47.068;15.408;2022-07-04T11:36:43;219.57;;;206.67;;
1995;SDS011;38556;47.068;15.408;2022-07-04T11:39:13;227.40;;;213.60;;
1995;SDS011;38556;47.068;15.408;2022-07-04T11:41:45;225.43;;;212.37;;
1995;SDS011;38556;47.068;15.408;2022-07-04T11:44:32;231.60;;;218.13;;
1995;SDS011;38556;47.068;15.408;2022-07-04T11:47:18;240.17;;;225.83;;
1995;SDS011;38556;47.068;15.408;2022-07-04T11:49:49;224.07;;;210.73;;
1995;SDS011;38556;47.068;15.408;2022-07-04T11:52:18;221.93;;;208.73;;
1995;SDS011;38556;47.068;15.408;2022-07-04T11:54:48;223.13;;;209.57;;
1995;SDS011;38556;47.068;15.408;2022-07-04T11:57:17;231.50;;;218.30;;
1995;SDS011;38556;47.068;15.408;2022-07-04T11:59:54;229.80;;;216.10;;
1995;SDS011;38556;47.068;15.408;2022-07-04T12:02:22;230.83;;;217.20;;
1995;SDS011;38556;47.068;15.408;2022-07-04T12:04:52;232.93;;;218.10;;
1995;SDS011;38556;47.068;15.408;2022-07-04T12:07:20;237.50;;;223.60;;
1995;SDS011;38556;47.068;15.408;2022-07-04T12:09:50;239.87;;;225.87;;
1995;SDS011;38556;47.068;15.408;2022-07-04T12:12:18;232.83;;;219.43;;
1995;SDS011;38556;47.068;15.408;2022-07-04T12:14:59;235.80;;;221.73;;
1995;SDS011;38556;47.068;15.408;2022-07-04T12:17:31;224.97;;;211.37;;
1995;SDS011;38556;47.068;15.408;2022-07-04T12:20:02;245.23;;;231.03;;
1995;SDS011;38556;47.068;15.408;2022-07-04T12:22:39;235.30;;;221.50;;
1995;SDS011;38556;47.068;15.408;2022-07-04T12:25:08;222.03;;;209.13;;
1995;SDS011;38556;47.068;15.408;2022-07-04T12:27:51;223.27;;;210.03;;
1995;SDS011;38556;47.068;15.408;2022-07-04T12:30:23;228.90;;;215.10;;
1995;SDS011;38556;47.068;15.408;2022-07-04T12:32:52;245.87;;;231.97;;
1995;SDS011;38556;47.068;15.408;2022-07-04T12:35:38;249.17;;;235.13;;
1995;SDS011;38556;47.068;15.408;2022-07-04T12:38:09;249.97;;;235.27;;
1995;SDS011;38556;47.068;15.408;2022-07-04T12:40:49;244.97;;;230.97;;
1995;SDS011;38556;47.068;15.408;2022-07-04T12:43:21;239.10;;;224.77;;
1995;SDS011;38556;47.068;15.408;2022-07-04T12:45:50;245.90;;;230.97;;
1995;SDS011;38556;47.068;15.408;2022-07-04T12:48:21;263.43;;;248.33;;
1995;SDS011;38556;47.068;15.408;2022-07-04T12:50:52;255.63;;;240.83;;
1995;SDS011;38556;47.068;15.408;2022-07-04T12:53:20;257.77;;;243.67;;
1995;SDS011;38556;47.068;15.408;2022-07-04T12:55:48;250.93;;;232.73;;
1995;SDS011;38556;47.068;15.408;2022-07-04T12:58:16;238.20;;;224.30;;
1995;SDS011;38556;47.068;15.408;2022-07-04T13:00:43;238.13;;;224.40;;
1995;SDS011;38556;47.068;15.408;2022-07-04T13:03:11;251.37;;;236.93;;
1995;SDS011;38556;47.068;15.408;2022-07-04T13:05:39;242.67;;;228.97;;
1995;SDS011;38556;47.068;15.408;2022-07-04T13:08:08;250.60;;;236.27;;
1995;SDS011;38556;47.068;15.408;2022-07-04T13:10:35;263.30;;;248.43;;
1995;SDS011;38556;47.068;15.408;2022-07-04T13:13:03;246.00;;;232.03;;
1995;SDS011;38556;47.068;15.408;2022-07-04T13:15:30;249.20;;;235.20;;
1995;SDS011;38556;47.068;15.408;2022-07-04T13:17:57;249.23;;;235.00;;
1995;SDS011;38556;47.068;15.408;2022-07-04T13:20:25;252.37;;;238.20;;
1995;SDS011;38556;47.068;15.408;2022-07-04T13:22:53;261.40;;;246.80;;
1995;SDS011;38556;47.068;15.408;2022-07-04T13:25:22;239.23;;;225.83;;
1995;SDS011;38556;47.068;15.408;2022-07-04T13:27:49;249.00;;;234.10;;
1995;SDS011;38556;47.068;15.408;2022-07-04T13:30:16;250.80;;;236.07;;
1995;SDS011;38556;47.068;15.408;2022-07-04T13:32:44;253.60;;;238.60;;
1995;SDS011;38556;47.068;15.408;2022-07-04T13:35:11;248.53;;;233.37;;
1995;SDS011;38556;47.068;15.408;2022-07-04T13:37:38;251.53;;;236.87;;
1995;SDS011;38556;47.068;15.408;2022-07-04T13:40:06;253.93;;;239.20;;
1995;SDS011;38556;47.068;15.408;2022-07-04T13:42:37;257.37;;;242.87;;
1995;SDS011;38556;47.068;15.408;2022-07-04T13:45:22;250.83;;;236.37;;
1995;SDS011;38556;47.068;15.408;2022-07-04T13:47:51;248.10;;;233.57;;
1995;SDS011;38556;47.068;15.408;2022-07-04T13:50:19;250.63;;;235.77;;
1995;SDS011;38556;47.068;15.408;2022-07-04T13:52:48;243.03;;;228.13;;
1995;SDS011;38556;47.068;15.408;2022-07-04T13:55:15;239.90;;;226.20;;
1995;SDS011;38556;47.068;15.408;2022-07-04T13:57:44;250.80;;;236.10;;
1995;SDS011;38556;47.068;15.408;2022-07-04T14:00:11;252.50;;;238.10;;
1995;SDS011;38556;47.068;15.408;2022-07-04T14:02:39;249.87;;;235.73;;
1995;SDS011;38556;47.068;15.408;2022-07-04T14:05:07;255.57;;;240.27;;
1995;SDS011;38556;47.068;15.408;2022-07-04T14:07:35;246.73;;;232.63;;